Time;durP1;ratioP1;P1;durP2;ratioP2;P2;SDS_P1;SDS_P2;PMS_P1;PMS_P2;Temp;Humidity;BMP_temperature;BMP_pressure;BME280_temperature;BME280_humidity;BME280_pressure;Samples;Min_cycle;Max_cycle;Signal;HPM_P1;HPM_P2
2022/07/01 00:02:47;;;;;;;7.30;3.37;;;;;;;18.33;65.94;100743.05;1704372;83;21213;-54
2022/07/01 00:05:53;;;;;;;5.78;3.47;;;;;;;18.29;65.97;100742.31;1719283;83;21738;-54
2022/07/01 00:08:58;;;;;;;5.50;3.45;;;;;;;18.24;66.00;100740.72;1719278;83;21241;-55
2022/07/01 00:12:05;;;;;;;4.58;3.22;;;;;;;18.20;66.07;100740.33;1719303;83;21198;-55
2022/07/01 00:15:12;;;;;;;10.58;3.30;;;;;;;18.14;66.05;100734.23;1719312;83;21253;-55
2022/07/01 00:18:18;;;;;;;5.05;3.62;;;;;;;18.07;66.03;100730.65;1719572;83;21324;-55
2022/07/01 00:21:24;;;;;;;6.80;3.87;;;;;;;18.02;66.03;100730.96;1719248;83;21194;-54
2022/07/01 00:24:29;;;;;;;10.70;3.27;;;;;;;17.96;66.07;100734.59;1719281;83;21375;-55
2022/07/01 00:27:36;;;;;;;4.72;3.40;;;;;;;17.90;66.13;100729.41;1719355;83;21229;-53
2022/07/01 00:30:42;;;;;;;4.28;3.27;;;;;;;17.84;66.16;100723.31;1719298;83;21221;-53
2022/07/01 00:33:47;;;;;;;6.78;3.67;;;;;;;17.82;66.32;100720.75;1719388;83;21221;-55
2022/07/01 00:36:54;;;;;;;6.53;3.70;;;;;;;17.78;66.41;100715.86;1719359;83;21411;-54
2022/07/01 00:40:01;;;;;;;4.42;3.67;;;;;;;17.73;66.42;100715.65;1719287;83;21218;-54
2022/07/01 00:43:08;;;;;;;11.63;3.42;;;;;;;17.70;66.54;100709.16;1719242;83;21202;-55
2022/07/01 00:46:16;;;;;;;7.62;4.58;;;;;;;17.69;66.63;100701.92;1719285;83;21229;-55
2022/07/01 00:49:21;;;;;;;5.20;3.15;;;;;;;17.63;66.67;100703.62;1719280;83;21234;-54
2022/07/01 00:52:27;;;;;;;10.50;3.33;;;;;;;17.60;66.69;100703.22;1719358;83;21355;-55
2022/07/01 00:55:33;;;;;;;6.45;3.50;;;;;;;17.58;66.85;100703.41;1719262;83;21186;-55
2022/07/01 00:58:39;;;;;;;5.85;3.47;;;;;;;17.57;66.95;100704.48;1719218;83;21170;-55
2022/07/01 01:01:46;;;;;;;6.37;3.60;;;;;;;17.58;67.00;100715.03;1719332;83;21186;-53
2022/07/01 01:04:51;;;;;;;8.95;4.00;;;;;;;17.55;67.03;100708.54;1719292;83;21277;-54
2022/07/01 01:07:59;;;;;;;4.80;3.20;;;;;;;17.51;66.94;100710.02;1719340;83;21340;-54
2022/07/01 01:11:06;;;;;;;6.42;3.65;;;;;;;17.45;66.94;100704.81;1719263;83;21213;-55
2022/07/01 01:14:06;;;;;;;6.20;3.47;;;;;;;17.40;66.91;100707.33;1719250;83;21205;-55
2022/07/01 01:17:12;;;;;;;6.80;3.45;;;;;;;17.34;66.86;100705.94;1719346;83;21339;-56
2022/07/01 01:20:26;;;;;;;7.35;3.52;;;;;;;17.28;66.93;100706.78;1719291;83;21225;-55
2022/07/01 01:23:32;;;;;;;8.40;3.02;;;;;;;17.24;67.01;100705.48;1719291;83;21288;-56
2022/07/01 01:26:38;;;;;;;7.70;3.90;;;;;;;17.21;67.16;100708.67;1704347;83;21220;-54
2022/07/01 01:29:44;;;;;;;4.95;3.20;;;;;;;17.18;67.17;100711.34;1719249;83;21253;-54
2022/07/01 01:32:52;;;;;;;6.58;3.92;;;;;;;17.17;67.33;100715.71;1719317;83;21241;-54
2022/07/01 01:35:59;;;;;;;6.45;3.85;;;;;;;17.15;67.35;100728.89;1704922;83;21217;-54
2022/07/01 01:39:12;;;;;;;4.42;3.40;;;;;;;17.10;67.29;100722.61;1719401;83;21189;-54
2022/07/01 01:42:17;;;;;;;7.90;3.58;;;;;;;17.06;67.21;100724.08;1719423;82;21245;-54
2022/07/01 01:45:23;;;;;;;6.40;3.62;;;;;;;17.03;67.30;100719.52;1719329;83;21217;-55
2022/07/01 01:48:29;;;;;;;7.58;3.27;;;;;;;17.04;67.45;100725.36;1719389;82;21182;-55
2022/07/01 01:51:36;;;;;;;5.17;3.15;;;;;;;17.01;67.40;100723.88;1719332;83;21241;-55
2022/07/01 01:54:44;;;;;;;7.53;3.60;;;;;;;17.02;67.53;100726.95;1719386;83;21344;-55
2022/07/01 01:57:51;;;;;;;5.47;3.08;;;;;;;17.03;67.57;100731.97;1719268;81;21229;-55
2022/07/01 02:00:58;;;;;;;6.25;3.87;;;;;;;16.99;67.53;100735.67;1719527;83;21230;-54
2022/07/01 02:04:04;;;;;;;5.75;3.45;;;;;;;16.96;67.53;100737.48;1719316;83;21226;-54
2022/07/01 02:07:10;;;;;;;9.98;3.17;;;;;;;16.94;67.54;100744.26;1718732;83;21206;-56
2022/07/01 02:10:16;;;;;;;5.92;3.35;;;;;;;16.92;67.60;100751.38;1719398;83;21379;-54
2022/07/01 02:13:23;;;;;;;7.05;3.47;;;;;;;16.91;67.64;100752.97;1718929;83;21249;-54
2022/07/01 02:16:28;;;;;;;5.78;3.67;;;;;;;16.90;67.77;100747.13;1719561;83;21292;-54
2022/07/01 02:19:35;;;;;;;5.08;3.50;;;;;;;16.90;67.86;100752.14;1719362;83;21245;-55
2022/07/01 02:22:42;;;;;;;7.87;4.15;;;;;;;16.88;67.84;100747.86;1719333;83;21190;-54
2022/07/01 02:25:49;;;;;;;7.62;4.30;;;;;;;16.86;67.82;100749.97;1719282;83;21201;-55
2022/07/01 02:28:55;;;;;;;7.92;4.17;;;;;;;16.85;67.83;100751.91;1719346;83;21204;-55
2022/07/01 02:31:54;;;;;;;5.75;4.20;;;;;;;16.86;67.87;100757.75;1719473;83;21665;-54
2022/07/01 02:35:00;;;;;;;7.85;4.95;;;;;;;16.86;67.92;100754.12;1719400;83;21218;-55
2022/07/01 02:38:07;;;;;;;9.63;4.67;;;;;;;16.88;67.98;100754.77;1719341;83;21194;-54
2022/07/01 02:41:14;;;;;;;5.22;3.98;;;;;;;16.91;68.07;100754.36;1719402;83;21856;-55
2022/07/01 02:44:21;;;;;;;6.75;4.28;;;;;;;16.97;68.23;100753.52;1719350;83;21371;-54
2022/07/01 02:47:28;;;;;;;7.87;4.37;;;;;;;17.02;68.30;100755.13;1705074;84;21301;-55
2022/07/01 02:50:32;;;;;;;12.78;5.45;;;;;;;17.09;68.37;100761.03;1704759;84;21860;-54
2022/07/01 02:53:41;;;;;;;8.30;5.45;;;;;;;17.17;68.46;100764.12;1705868;84;21185;-53
2022/07/01 02:56:48;;;;;;;6.78;5.25;;;;;;;17.24;68.50;100764.98;1706315;84;21288;-54
2022/07/01 02:59:53;;;;;;;10.25;5.20;;;;;;;17.29;68.48;100760.53;1701982;84;21248;-53
2022/07/01 03:02:58;;;;;;;8.63;4.37;;;;;;;17.36;68.44;100761.94;1701806;84;21229;-55
2022/07/01 03:06:05;;;;;;;8.35;3.70;;;;;;;17.45;68.46;100771.77;1701438;84;21237;-54
2022/07/01 03:09:12;;;;;;;10.20;4.22;;;;;;;17.53;68.40;100764.64;1701980;84;21264;-54
2022/07/01 03:12:25;;;;;;;7.58;4.62;;;;;;;17.60;68.42;100757.21;1701754;84;21201;-55
2022/07/01 03:15:29;;;;;;;;;;;;;;;17.69;68.47;100765.09;1704289;84;21781;-54
2022/07/01 03:18:34;;;;;;;7.67;4.30;;;;;;;17.78;68.48;100767.09;1702276;84;20227;-56
2022/07/01 03:21:40;;;;;;;26.05;15.20;;;;;;;17.89;68.59;100774.77;1701565;84;21268;-54
2022/07/01 03:24:46;;;;;;;7.95;5.25;;;;;;;18.00;68.61;100778.83;1685849;84;21189;-55
2022/07/01 03:27:52;;;;;;;8.85;4.33;;;;;;;18.09;68.58;100781.17;1701702;84;21229;-55
2022/07/01 03:30:59;;;;;;;6.42;3.77;;;;;;;18.17;68.53;100785.07;1702277;84;21272;-54
2022/07/01 03:34:05;;;;;;;5.90;3.02;;;;;;;18.26;68.52;100789.34;1702173;84;21231;-53
2022/07/01 03:37:12;;;;;;;6.60;2.95;;;;;;;18.36;68.50;100790.29;1702203;84;21257;-54
2022/07/01 03:40:19;;;;;;;5.47;3.00;;;;;;;18.43;68.47;100783.69;1686989;84;21272;-53
2022/07/01 03:43:27;;;;;;;5.60;3.00;;;;;;;18.51;68.44;100795.94;1702393;84;21335;-53
2022/07/01 03:46:37;;;;;;;4.53;2.50;;;;;;;18.58;68.42;100793.14;1702233;84;21193;-52
2022/07/01 03:49:43;;;;;;;4.78;2.80;;;;;;;18.66;68.37;100798.45;1702153;84;21217;-53
2022/07/01 03:54:29;;;;;;;5.45;2.80;;;;;;;18.74;68.36;100794.06;1692785;84;21197;-53
2022/07/01 03:55:57;;;;;;;5.85;3.17;;;;;;;18.84;68.36;100795.81;1673998;85;21333;-53
2022/07/01 03:59:02;;;;;;;7.28;3.20;;;;;;;18.94;68.42;100794.82;1687324;83;21227;-52
2022/07/01 04:02:08;;;;;;;4.90;3.17;;;;;;;19.03;68.40;100795.73;1685590;85;21194;-54
2022/07/01 04:05:20;;;;;;;6.87;3.55;;;;;;;19.11;68.38;100795.48;1685987;85;21237;-54
2022/07/01 04:08:26;;;;;;;10.20;2.95;;;;;;;19.20;68.35;100792.77;1681985;85;21337;-53
2022/07/01 04:11:34;;;;;;;10.30;3.10;;;;;;;19.28;68.27;100794.48;1673475;86;21256;-54
2022/07/01 04:14:40;;;;;;;7.95;2.92;;;;;;;19.33;68.26;100799.67;1672882;85;21244;-55
2022/07/01 04:17:48;;;;;;;5.80;3.30;;;;;;;19.43;68.24;100796.94;1672822;85;21189;-54
2022/07/01 04:24:19;;;;;;;4.62;2.70;;;;;;;19.55;68.15;100797.95;1672929;85;21232;-54
2022/07/01 04:27:31;;;;;;;5.40;2.65;;;;;;;19.62;68.18;100794.04;1672629;86;21820;-53
2022/07/01 04:30:36;;;;;;;6.50;3.45;;;;;;;19.74;68.16;100787.23;1673274;85;21785;-53
2022/07/01 04:33:41;;;;;;;7.58;3.00;;;;;;;19.83;68.17;100792.81;1673979;85;21308;-52
2022/07/01 04:36:48;;;;;;;6.05;3.00;;;;;;;19.93;68.16;100794.55;1673409;85;21205;-52
2022/07/01 04:39:59;;;;;;;5.05;3.40;;;;;;;20.00;68.06;100789.24;1673826;85;21386;-53
2022/07/01 04:43:06;;;;;;;13.13;4.22;;;;;;;20.11;68.08;100787.64;1673316;85;21224;-53
2022/07/01 04:46:12;;;;;;;5.85;3.25;;;;;;;20.22;68.11;100785.53;1672833;86;21236;-53
2022/07/01 04:49:18;;;;;;;7.08;3.72;;;;;;;20.33;68.13;100788.95;1673286;85;21209;-53
2022/07/01 04:52:26;;;;;;;8.30;3.80;;;;;;;20.44;68.09;100780.71;1673237;84;21198;-53
2022/07/01 04:55:33;;;;;;;6.15;3.25;;;;;;;20.57;68.10;100788.06;1671981;85;21226;-53
2022/07/01 04:58:39;;;;;;;11.15;3.50;;;;;;;20.68;68.07;100784.51;1672817;84;21257;-54
2022/07/01 05:01:51;;;;;;;14.18;4.42;;;;;;;20.79;68.08;100780.95;1658750;84;21303;-54
2022/07/01 05:04:55;;;;;;;6.72;3.30;;;;;;;20.90;68.11;100782.13;1673752;83;21232;-54
2022/07/01 05:08:03;;;;;;;7.53;3.75;;;;;;;21.02;68.12;100783.92;1721648;83;21732;-53
2022/07/01 05:11:10;;;;;;;10.15;3.50;;;;;;;21.13;68.12;100779.48;1691687;83;21219;-56
2022/07/01 05:14:18;;;;;;;12.95;4.17;;;;;;;21.24;68.16;100780.08;1732706;81;21394;-55
2022/07/01 05:21:55;;;;;;;9.33;3.30;;;;;;;21.38;68.17;100779.66;1721882;82;21212;-55
2022/07/01 05:23:58;;;;;;;10.23;3.75;;;;;;;21.61;68.13;100778.33;1714744;83;21759;-52
2022/07/01 05:27:04;;;;;;;10.50;3.77;;;;;;;21.74;68.11;100771.16;1704472;83;21580;-53
2022/07/01 05:30:10;;;;;;;10.15;3.50;;;;;;;21.86;68.05;100772.09;1660269;85;21229;-57
2022/07/01 05:33:19;;;;;;;8.40;3.05;;;;;;;21.96;67.99;100769.53;1672263;85;21579;-57
2022/07/01 05:36:27;;;;;;;6.10;3.12;;;;;;;22.10;67.96;100771.56;1691079;84;21560;-57
2022/07/01 05:39:34;;;;;;;5.33;3.62;;;;;;;22.21;67.89;100772.11;1696824;84;21598;-58
2022/07/01 05:42:43;;;;;;;4.55;2.92;;;;;;;22.32;67.77;100778.77;1728901;82;21221;-58
2022/07/01 05:45:48;;;;;;;10.25;6.35;;;;;;;22.41;67.73;100772.59;1719675;82;21277;-57
2022/07/01 05:48:59;;;;;;;6.85;2.80;;;;;;;22.52;67.60;100770.91;1706056;82;21197;-56
2022/07/01 05:52:06;;;;;;;8.53;2.17;;;;;;;22.64;67.51;100781.53;1733697;82;21196;-56
2022/07/01 05:55:13;;;;;;;5.35;2.00;;;;;;;22.73;67.22;100777.25;1703676;82;21231;-57
2022/07/01 05:58:20;;;;;;;6.65;2.65;;;;;;;22.83;67.07;100776.95;1702569;83;21214;-57
2022/07/01 06:01:28;;;;;;;4.35;2.30;;;;;;;22.93;66.92;100772.95;1720804;83;21271;-57
2022/07/01 06:04:33;;;;;;;4.45;2.80;;;;;;;23.03;66.80;100769.53;1666747;85;21316;-57
2022/07/01 06:07:41;;;;;;;3.30;2.00;;;;;;;23.10;66.66;100768.28;1720943;83;21776;-59
2022/07/01 06:10:51;;;;;;;3.67;2.10;;;;;;;23.19;66.61;100772.41;1720801;83;21921;-59
2022/07/01 06:13:58;;;;;;;5.08;2.25;;;;;;;23.29;66.51;100767.59;1690883;83;21656;-58
2022/07/01 06:17:06;;;;;;;4.67;2.50;;;;;;;23.39;66.43;100770.57;1698677;83;21734;-57
2022/07/01 06:20:15;;;;;;;6.17;2.72;;;;;;;23.49;66.32;100769.37;1696633;84;21362;-60
2022/07/01 06:23:22;;;;;;;6.10;2.87;;;;;;;23.59;66.19;100775.17;1700889;82;21219;-57
2022/07/01 06:26:29;;;;;;;4.42;2.17;;;;;;;23.69;66.03;100773.11;1695374;83;21201;-57
2022/07/01 06:29:34;;;;;;;5.00;2.20;;;;;;;23.78;65.88;100761.80;1697277;84;21312;-57
2022/07/01 06:32:39;;;;;;;5.50;2.12;;;;;;;23.87;65.68;100771.46;1696387;82;21189;-58
2022/07/01 06:35:45;;;;;;;6.40;2.37;;;;;;;23.95;65.44;100775.23;1699052;83;21788;-58
2022/07/01 06:38:51;;;;;;;4.03;1.95;;;;;;;24.03;65.35;100765.06;1706802;83;21193;-58
2022/07/01 06:41:58;;;;;;;3.52;2.17;;;;;;;24.11;65.26;100766.90;1697290;84;21260;-56
2022/07/01 06:45:11;;;;;;;4.33;1.98;;;;;;;24.17;65.05;100763.07;1697320;84;21232;-56
2022/07/01 06:48:18;;;;;;;4.85;2.15;;;;;;;24.22;64.88;100757.56;1684803;84;21206;-58
2022/07/01 06:51:24;;;;;;;3.60;2.00;;;;;;;24.29;64.72;100757.39;1684270;84;21755;-58
2022/07/01 06:54:30;;;;;;;7.67;3.25;;;;;;;24.34;64.59;100745.70;1683999;85;21201;-57
2022/07/01 06:57:38;;;;;;;4.33;2.10;;;;;;;24.42;64.55;100747.24;1684146;85;21214;-56
2022/07/01 07:00:45;;;;;;;6.05;1.95;;;;;;;24.51;64.43;100750.73;1684112;85;21250;-56
2022/07/01 07:03:57;;;;;;;4.37;2.15;;;;;;;24.61;64.27;100760.66;1701973;83;21258;-54
2022/07/01 07:07:05;;;;;;;7.08;2.12;;;;;;;24.68;64.05;100761.91;1711301;83;21218;-56
2022/07/01 07:10:16;;;;;;;6.75;2.15;;;;;;;24.71;63.77;100771.19;1706135;82;21240;-56
2022/07/01 07:13:24;;;;;;;5.40;2.20;;;;;;;24.73;63.64;100765.65;1680381;84;21750;-56
2022/07/01 07:16:34;;;;;;;4.03;2.10;;;;;;;24.75;63.42;100767.61;1676169;85;21849;-55
2022/07/01 07:19:52;;;;;;;4.15;2.37;;;;;;;24.78;63.27;100767.09;1696490;83;21610;-57
2022/07/01 07:22:59;;;;;;;5.53;2.50;;;;;;;24.82;63.13;100766.88;1694622;84;21490;-58
2022/07/01 07:26:05;;;;;;;5.87;2.30;;;;;;;24.85;62.97;100762.16;1705613;84;21240;-56
2022/07/01 07:29:12;;;;;;;7.62;2.33;;;;;;;24.92;62.93;100764.23;1706262;84;21302;-55
2022/07/01 07:32:19;;;;;;;7.87;2.52;;;;;;;25.00;62.78;100765.17;1705194;84;21240;-56
2022/07/01 07:35:24;;;;;;;7.83;2.33;;;;;;;25.05;62.60;100763.80;1719078;83;21223;-57
2022/07/01 07:38:32;;;;;;;4.70;2.37;;;;;;;25.11;62.45;100765.28;1675165;84;21244;-57
2022/07/01 07:41:46;;;;;;;9.38;2.52;;;;;;;25.18;62.36;100756.13;1714700;83;21248;-57
2022/07/01 07:45:02;;;;;;;4.85;2.00;;;;;;;25.25;62.09;100764.62;1719708;83;21203;-59
2022/07/01 07:48:14;;;;;;;5.95;2.20;;;;;;;25.28;61.91;100760.42;1714656;83;21750;-58
2022/07/01 07:51:22;;;;;;;5.40;2.27;;;;;;;25.34;61.80;100753.83;1677032;85;21240;-57
2022/07/01 07:54:31;;;;;;;6.80;2.77;;;;;;;25.41;61.71;100755.85;1677530;85;21217;-57
2022/07/01 07:57:45;;;;;;;5.30;2.05;;;;;;;25.47;61.70;100754.24;1650445;86;21209;-57
2022/07/01 08:00:52;;;;;;;7.45;2.12;;;;;;;25.54;61.41;100756.84;1653857;87;21240;-58
2022/07/01 08:04:00;;;;;;;5.58;1.98;;;;;;;25.56;61.08;100757.44;1680806;85;21565;-55
2022/07/01 08:07:07;;;;;;;5.95;2.20;;;;;;;25.53;60.77;100757.39;1648386;85;21281;-57
2022/07/01 08:10:17;;;;;;;6.50;2.00;;;;;;;25.52;60.67;100740.28;1671188;84;21264;-55
2022/07/01 08:13:23;;;;;;;8.08;2.33;;;;;;;25.57;60.55;100738.08;1634976;88;21245;-55
2022/07/01 08:16:31;;;;;;;2.72;1.90;;;;;;;25.61;60.39;100746.27;1645285;86;21232;-53
2022/07/01 08:19:39;;;;;;;5.00;2.47;;;;;;;25.62;60.18;100740.39;1620642;87;21320;-53
2022/07/01 08:22:47;;;;;;;6.15;2.33;;;;;;;25.70;60.08;100746.06;1655125;86;21267;-53
2022/07/01 08:25:56;;;;;;;6.40;2.90;;;;;;;25.81;59.97;100738.89;1663331;85;21350;-55
2022/07/01 08:29:17;;;;;;;6.70;2.30;;;;;;;25.95;59.64;100744.89;1910269;73;22274;-54
2022/07/01 08:32:25;;;;;;;4.15;1.90;;;;;;;25.90;59.50;100735.87;1820714;77;21231;-55
2022/07/01 08:35:30;;;;;;;5.17;2.00;;;;;;;25.93;59.34;100730.27;1841458;77;21731;-55
2022/07/01 08:38:36;;;;;;;5.67;2.20;;;;;;;25.98;59.25;100735.38;1844017;77;21161;-56
2022/07/01 08:41:42;;;;;;;8.60;2.30;;;;;;;26.03;59.05;100726.19;1843031;76;21181;-58
2022/07/01 08:44:50;;;;;;;3.55;2.40;;;;;;;26.11;58.97;100719.53;1873253;76;21201;-57
2022/07/01 08:48:01;;;;;;;4.62;2.10;;;;;;;26.21;58.76;100728.58;1872903;75;21208;-55
2022/07/01 08:51:08;;;;;;;7.53;2.20;;;;;;;26.31;58.63;100725.83;1878867;76;21369;-55
2022/07/01 08:54:16;;;;;;;5.67;2.10;;;;;;;26.41;58.48;100725.36;1873166;76;21181;-57
2022/07/01 08:57:30;;;;;;;5.50;2.17;;;;;;;26.48;58.18;100720.33;1872491;76;21149;-58
2022/07/01 09:00:38;;;;;;;3.55;1.92;;;;;;;26.56;57.97;100720.36;1854674;75;21255;-53
2022/07/01 09:03:45;;;;;;;6.55;2.10;;;;;;;26.63;57.80;100718.16;1837491;78;21303;-54
2022/07/01 09:06:55;;;;;;;4.72;1.98;;;;;;;26.70;57.66;100714.59;1854846;76;21795;-55
2022/07/01 09:10:02;;;;;;;6.97;2.10;;;;;;;26.79;57.48;100712.95;1831006;77;21286;-52
2022/07/01 09:13:15;;;;;;;8.05;1.95;;;;;;;26.81;57.21;100709.31;1846421;76;21706;-55
2022/07/01 09:16:24;;;;;;;6.75;2.47;;;;;;;26.81;56.99;100709.31;1855371;76;21212;-54
2022/07/01 09:19:32;;;;;;;5.05;2.25;;;;;;;26.87;56.77;100714.38;1845325;76;21165;-53
2022/07/01 09:22:42;;;;;;;2.87;2.27;;;;;;;26.87;56.56;100696.97;1784407;79;21808;-54
2022/07/01 09:25:57;;;;;;;2.90;2.02;;;;;;;26.96;56.58;100693.90;1869561;76;21177;-53
2022/07/01 09:29:04;;;;;;;9.83;2.17;;;;;;;27.06;56.36;100691.13;1839580;76;21188;-55
2022/07/01 09:32:16;;;;;;;3.45;2.22;;;;;;;27.11;56.07;100691.16;1845892;76;21169;-56
2022/07/01 09:35:32;;;;;;;2.83;1.95;;;;;;;27.20;55.90;100691.44;1847548;76;21208;-54
2022/07/01 09:38:37;;;;;;;2.70;2.17;;;;;;;27.25;55.63;100685.83;1839864;77;21287;-54
2022/07/01 09:41:46;;;;;;;6.58;2.00;;;;;;;27.20;55.39;100695.10;1856445;76;21197;-54
2022/07/01 09:45:10;;;;;;;7.08;2.10;;;;;;;27.17;55.28;100687.23;1853832;76;21200;-56
2022/07/01 09:48:13;;;;;;;5.40;2.10;;;;;;;27.26;55.21;100681.88;1860081;76;21235;-55
2022/07/01 09:51:20;;;;;;;5.37;2.00;;;;;;;27.42;55.03;100685.89;1857271;76;21177;-54
2022/07/01 09:54:25;;;;;;;4.10;2.40;;;;;;;27.48;54.72;100695.20;1841173;76;21205;-54
2022/07/01 09:57:36;;;;;;;5.17;2.27;;;;;;;27.52;54.52;100685.92;1866321;76;21429;-55
2022/07/01 10:00:47;;;;;;;3.17;2.17;;;;;;;27.59;54.27;100682.25;1847109;76;21210;-53
2022/07/01 10:03:56;;;;;;;4.58;2.30;;;;;;;27.50;53.96;100668.47;1869702;76;21207;-53
2022/07/01 10:07:16;;;;;;;3.30;1.98;;;;;;;27.43;53.94;100676.91;1869984;76;21719;-53
2022/07/01 10:11:06;;;;;;;4.03;2.08;;;;;;;27.56;53.92;100670.16;1850069;76;21177;-54
2022/07/01 10:14:16;;;;;;;3.87;2.33;;;;;;;27.64;53.60;100671.01;1840384;76;21153;-52
2022/07/01 10:17:46;;;;;;;6.47;2.15;;;;;;;27.47;53.30;100674.66;1857659;76;21160;-54
2022/07/01 10:20:55;;;;;;;4.50;2.27;;;;;;;27.43;53.26;100659.45;1849709;76;21698;-51
2022/07/01 10:24:23;;;;;;;5.20;2.20;;;;;;;27.62;53.27;100652.73;1868838;76;21211;-51
2022/07/01 10:27:33;;;;;;;3.25;2.00;;;;;;;27.84;53.20;100658.33;1865255;76;22233;-49
2022/07/01 10:30:43;;;;;;;5.67;2.02;;;;;;;28.00;52.87;100659.77;1858679;76;21201;-49
2022/07/01 10:34:03;;;;;;;3.00;2.08;;;;;;;27.98;52.56;100653.57;1854197;76;21137;-49
2022/07/01 10:37:12;;;;;;;4.87;2.17;;;;;;;27.98;52.39;100656.38;1849867;76;21166;-50
2022/07/01 10:40:19;;;;;;;3.15;2.05;;;;;;;28.05;52.19;100656.95;1852454;76;21840;-49
2022/07/01 10:43:44;;;;;;;3.80;1.90;;;;;;;28.06;51.99;100648.22;1855271;76;21681;-48
2022/07/01 10:46:58;;;;;;;9.33;2.33;;;;;;;28.16;51.95;100640.32;1856563;76;21184;-49
2022/07/01 10:50:19;;;;;;;3.50;1.80;;;;;;;28.32;51.81;100633.52;1849322;76;21592;-50
2022/07/01 10:53:29;;;;;;;9.00;1.82;;;;;;;28.47;51.58;100629.23;1849718;76;21370;-51
2022/07/01 10:56:49;;;;;;;3.83;1.80;;;;;;;28.61;51.30;100644.41;1842621;76;21252;-49
2022/07/01 11:00:15;;;;;;;2.77;1.90;;;;;;;28.56;50.91;100630.37;1870132;76;21690;-49
2022/07/01 11:03:23;;;;;;;4.20;1.75;;;;;;;28.58;50.76;100625.27;1849999;76;21185;-50
2022/07/01 11:06:36;;;;;;;4.78;1.92;;;;;;;28.70;50.50;100615.94;1843013;76;21259;-51
2022/07/01 11:09:39;;;;;;;2.77;1.55;;;;;;;28.58;50.15;100623.30;1843840;76;21186;-50
2022/07/01 11:12:48;;;;;;;4.25;2.20;;;;;;;28.46;49.99;100624.73;1842111;76;21169;-51
2022/07/01 11:15:54;;;;;;;2.52;1.47;;;;;;;28.46;49.83;100621.36;1870418;76;21995;-49
2022/07/01 11:19:01;;;;;;;2.75;1.80;;;;;;;28.51;49.69;100604.45;1872749;76;21153;-50
2022/07/01 11:22:10;;;;;;;8.48;1.80;;;;;;;28.58;49.56;100618.23;1865762;76;21353;-49
2022/07/01 11:25:18;;;;;;;3.47;1.60;;;;;;;28.40;49.21;100611.81;1860476;76;21227;-50
2022/07/01 11:28:29;;;;;;;2.37;1.80;;;;;;;28.38;49.19;100602.79;1856384;76;21733;-51
2022/07/01 11:31:39;;;;;;;3.62;1.80;;;;;;;28.40;49.01;100607.58;1836097;76;21714;-50
2022/07/01 11:34:49;;;;;;;4.25;1.65;;;;;;;28.46;48.91;100597.42;1866788;76;21835;-53
2022/07/01 11:41:32;;;;;;;5.00;1.82;;;;;;;28.50;48.43;100592.91;1871156;76;21717;-52
2022/07/01 11:44:47;;;;;;;6.30;1.90;;;;;;;28.59;48.35;100603.84;1870496;76;21784;-50
2022/07/01 11:47:53;;;;;;;2.02;1.70;;;;;;;28.69;48.11;100592.53;1871436;76;21279;-50
2022/07/01 11:51:00;;;;;;;3.58;1.45;;;;;;;28.76;47.93;100592.22;1870480;76;21714;-52
2022/07/01 11:54:09;;;;;;;2.83;1.60;;;;;;;28.79;47.71;100578.95;1879070;76;21867;-53
2022/07/01 11:57:22;;;;;;;3.37;1.70;;;;;;;28.90;47.59;100579.17;1870575;76;21169;-52
2022/07/01 12:00:33;;;;;;;4.37;1.80;;;;;;;28.96;47.35;100579.41;1872579;76;21177;-54
2022/07/01 12:03:41;;;;;;;4.67;1.87;;;;;;;28.96;47.21;100590.68;1843072;76;21709;-53
2022/07/01 12:06:48;;;;;;;2.12;1.50;;;;;;;28.91;46.98;100580.28;1871935;76;21338;-53
2022/07/01 12:09:57;;;;;;;2.60;1.72;;;;;;;28.90;46.88;100576.34;1856207;76;21438;-54
2022/07/01 12:13:30;;;;;;;3.22;1.85;;;;;;;28.97;46.79;100582.52;1837639;78;21161;-55
2022/07/01 12:16:54;;;;;;;5.55;1.72;;;;;;;28.99;46.61;100580.23;1859313;76;21695;-56
2022/07/01 12:19:58;;;;;;;4.00;2.00;;;;;;;29.08;46.53;100579.94;1844172;78;21220;-54
2022/07/01 12:23:21;;;;;;;4.30;1.80;;;;;;;29.21;46.45;100587.72;1835467;76;21165;-54
2022/07/01 12:26:30;;;;;;;2.40;1.60;;;;;;;29.21;46.17;100587.72;1837139;77;21787;-54
2022/07/01 12:29:39;;;;;;;2.85;1.62;;;;;;;29.11;45.93;100575.94;1837367;78;21271;-54
2022/07/01 12:32:49;;;;;;;3.12;1.57;;;;;;;29.08;45.77;100563.84;1828210;77;21181;-54
2022/07/01 12:35:56;;;;;;;3.45;1.77;;;;;;;29.06;45.64;100572.30;1839135;77;21773;-53
2022/07/01 12:39:11;;;;;;;4.20;2.40;;;;;;;29.12;45.51;100570.59;1839405;77;21177;-54
2022/07/01 12:42:36;;;;;;;4.47;2.05;;;;;;;29.10;45.64;100580.47;1839674;77;21169;-52
2022/07/01 12:45:43;;;;;;;4.53;2.05;;;;;;;29.10;45.64;100580.47;1840705;77;21204;-53
2022/07/01 12:48:58;;;;;;;4.10;2.17;;;;;;;29.04;45.31;100570.33;1836840;76;21201;-54
2022/07/01 12:52:04;;;;;;;5.97;2.25;;;;;;;29.08;45.20;100568.06;1850713;76;21331;-54
2022/07/01 12:55:23;;;;;;;5.25;2.15;;;;;;;29.16;45.13;100574.50;1840300;77;21247;-55
2022/07/01 12:58:33;;;;;;;2.45;1.75;;;;;;;28.93;44.55;100570.13;1840451;77;21180;-54
2022/07/01 13:01:39;;;;;;;4.10;2.10;;;;;;;28.93;44.55;100570.13;1858220;76;21798;-54
2022/07/01 13:04:46;;;;;;;5.70;4.50;;;;;;;28.65;44.58;100576.50;1872595;76;21235;-53
2022/07/01 13:07:53;;;;;;;5.45;2.20;;;;;;;28.65;44.58;100576.50;1854747;76;21766;-57
2022/07/01 13:10:59;;;;;;;3.25;2.05;;;;;;;28.78;44.55;100585.73;1856917;76;21264;-57
2022/07/01 13:14:06;;;;;;;3.67;2.00;;;;;;;28.78;44.55;100585.73;1871358;76;21137;-56
2022/07/01 13:17:15;;;;;;;2.47;1.67;;;;;;;28.92;44.37;100575.50;1872586;76;21149;-57
2022/07/01 13:20:22;;;;;;;4.90;2.33;;;;;;;28.92;44.37;100575.50;1858160;76;21243;-57
2022/07/01 13:23:31;;;;;;;4.08;1.82;;;;;;;29.08;43.93;100579.94;1847430;76;21224;-56
2022/07/01 13:26:47;;;;;;;7.40;2.00;;;;;;;29.08;43.93;100579.94;1870885;75;21138;-56
2022/07/01 13:29:56;;;;;;;2.75;2.00;;;;;;;29.11;44.23;100576.53;1841008;76;21304;-55
2022/07/01 13:33:07;;;;;;;5.28;2.12;;;;;;;28.96;44.06;100579.41;1840860;76;21169;-57
2022/07/01 13:36:14;;;;;;;2.58;1.98;;;;;;;28.92;44.08;100574.91;1840637;76;21738;-57
2022/07/01 13:39:21;;;;;;;2.42;2.00;;;;;;;28.96;44.05;100572.36;1828392;77;21173;-56
2022/07/01 13:42:28;;;;;;;4.25;2.30;;;;;;;29.01;44.03;100563.87;1835518;77;21693;-57
2022/07/01 13:45:35;;;;;;;4.95;2.02;;;;;;;28.95;43.88;100570.13;1836079;77;21208;-57
2022/07/01 13:48:43;;;;;;;7.87;2.58;;;;;;;28.85;43.79;100568.77;1835515;78;21157;-57
2022/07/01 13:51:53;;;;;;;9.90;2.42;;;;;;;28.59;43.67;100572.85;1838595;78;21321;-57
2022/07/01 13:54:59;;;;;;;3.00;1.90;;;;;;;28.52;43.80;100557.41;1836931;76;21185;-56
2022/07/01 13:58:08;;;;;;;3.30;1.98;;;;;;;28.63;43.73;100555.66;1868508;76;21599;-56
2022/07/01 14:01:15;;;;;;;5.15;2.10;;;;;;;28.61;43.60;100562.14;1859954;76;21873;-55
2022/07/01 14:04:22;;;;;;;5.35;2.47;;;;;;;28.59;43.27;100566.40;1853049;76;21189;-56
2022/07/01 14:07:33;;;;;;;3.47;1.70;;;;;;;28.59;43.27;100566.40;1854575;76;21218;-57
2022/07/01 14:10:44;;;;;;;4.78;2.00;;;;;;;28.67;43.48;100560.98;1854647;76;21220;-56
2022/07/01 14:13:49;;;;;;;3.77;2.02;;;;;;;28.76;43.43;100560.66;1843196;76;21169;-57
2022/07/01 14:16:55;;;;;;;5.83;2.05;;;;;;;28.86;43.34;100570.45;1850619;76;21216;-57
2022/07/01 14:19:59;;;;;;;3.77;2.33;;;;;;;28.84;43.22;100570.47;1848377;76;21240;-57
2022/07/01 14:23:06;;;;;;;4.42;1.98;;;;;;;28.71;43.07;100569.70;1850374;76;21161;-57
2022/07/01 14:26:15;;;;;;;3.92;1.82;;;;;;;28.62;43.01;100568.63;1851609;76;21834;-56
2022/07/01 14:29:26;;;;;;;4.53;1.90;;;;;;;28.52;42.94;100567.27;1851936;76;21154;-57
2022/07/01 14:32:33;;;;;;;2.85;1.70;;;;;;;28.59;42.95;100572.85;1843464;76;21189;-57
2022/07/01 14:35:39;;;;;;;5.80;1.80;;;;;;;28.50;42.83;100577.42;1856646;76;21168;-56
2022/07/01 14:38:47;;;;;;;4.05;1.90;;;;;;;28.39;42.77;100570.66;1866812;76;21181;-57
2022/07/01 14:41:55;;;;;;;2.83;1.80;;;;;;;28.33;42.77;100576.91;1866387;76;21216;-55
2022/07/01 14:45:03;;;;;;;7.28;1.95;;;;;;;28.20;42.74;100571.02;1846603;77;21184;-56
2022/07/01 14:48:10;;;;;;;7.80;1.65;;;;;;;28.06;42.74;100568.53;1845811;77;21691;-56